createdAt,value
2019-01-23T00:01:12.224Z,95217.61
2019-01-23T00:02:47.881Z,95216.65
2019-01-23T00:04:24.974Z,95215.52
2019-01-23T00:06:00.560Z,95215.88
2019-01-23T00:07:38.085Z,95212.07
2019-01-23T00:09:19.086Z,95220.60
2019-01-23T00:10:57.308Z,95216.83
2019-01-23T00:12:32.696Z,95213.17
2019-01-23T00:14:10.682Z,95210.92
2019-01-23T00:15:53.654Z,95212.06
2019-01-23T00:17:30.299Z,95207.50
2019-01-23T00:19:05.671Z,95215.27
2019-01-23T00:20:46.300Z,95214.87
2019-01-23T00:22:22.158Z,95210.11
2019-01-23T00:23:57.944Z,95208.59
2019-01-23T00:25:34.248Z,95206.50
2019-01-23T00:27:10.267Z,95209.39
2019-01-23T00:28:46.317Z,95206.53
2019-01-23T00:30:22.635Z,95203.11
2019-01-23T00:31:58.805Z,95207.70
2019-01-23T00:33:34.011Z,95203.87
2019-01-23T00:35:10.315Z,95199.44
2019-01-23T00:36:46.391Z,95199.05
2019-01-23T00:38:27.094Z,95196.38
2019-01-23T00:40:06.654Z,95195.09
2019-01-23T00:41:42.093Z,95197.34
2019-01-23T00:43:18.123Z,95197.14
2019-01-23T00:44:53.536Z,95189.89
2019-01-23T00:46:29.020Z,95191.24
2019-01-23T00:48:04.973Z,95189.32
2019-01-23T00:49:42.941Z,95187.61
2019-01-23T00:51:18.334Z,95183.61
2019-01-23T00:52:54.171Z,95181.72
2019-01-23T00:54:32.414Z,95180.45
2019-01-23T00:56:08.224Z,95177.00
2019-01-23T00:57:47.577Z,95170.89
2019-01-23T00:59:22.884Z,95171.08
2019-01-23T01:00:59.035Z,95175.02
2019-01-23T01:02:34.500Z,95174.08
2019-01-23T01:04:09.805Z,95171.02
2019-01-23T01:05:46.848Z,95169.50
2019-01-23T01:07:24.129Z,95168.35
2019-01-23T01:09:00.038Z,95168.59
2019-01-23T01:10:41.225Z,95166.26
2019-01-23T01:12:17.091Z,95168.73
2019-01-23T01:13:54.640Z,95170.50
2019-01-23T01:15:33.447Z,95167.08
2019-01-23T01:17:09.399Z,95172.05
2019-01-23T01:18:45.750Z,95173.24
2019-01-23T01:20:22.817Z,95171.48
2019-01-23T01:21:58.859Z,95169.77
2019-01-23T01:23:36.398Z,95172.05
2019-01-23T01:25:14.537Z,95165.77
2019-01-23T01:26:54.005Z,95168.05
2019-01-23T01:28:29.962Z,95165.38
2019-01-23T01:30:24.510Z,95163.86
2019-01-23T01:32:00.536Z,95165.38
2019-01-23T01:33:37.020Z,95160.43
2019-01-23T01:35:13.999Z,95160.66
2019-01-23T01:36:50.037Z,95159.72
2019-01-23T01:38:35.818Z,95150.72
2019-01-23T01:40:12.659Z,95154.19
2019-01-23T01:41:49.404Z,95154.19
2019-01-23T01:43:25.162Z,95153.81
2019-01-23T01:45:09.145Z,95146.21
2019-01-23T01:46:46.335Z,95149.62
2019-01-23T01:48:22.229Z,95144.11
2019-01-23T01:49:58.751Z,95146.95
2019-01-23T01:51:34.025Z,95145.84
2019-01-23T01:53:09.431Z,95141.81
2019-01-23T01:54:44.753Z,95140.67
2019-01-23T01:56:20.019Z,95140.27
2019-01-23T01:57:58.479Z,95141.44
2019-01-23T01:59:33.956Z,95145.42
2019-01-23T02:01:09.305Z,95141.82
2019-01-23T02:02:44.588Z,95138.77
2019-01-23T02:04:20.711Z,95135.52
2019-01-23T02:05:56.286Z,95141.82
2019-01-23T02:07:31.890Z,95127.15
2019-01-23T02:09:09.951Z,95132.28
2019-01-23T02:10:46.012Z,95129.23
2019-01-23T02:12:22.725Z,95128.30
2019-01-23T02:13:58.367Z,95130.58
2019-01-23T02:15:33.858Z,95125.05
2019-01-23T02:17:09.286Z,95126.20
2019-01-23T02:18:44.825Z,95120.53
2019-01-23T02:20:22.461Z,95125.05
2019-01-23T02:22:00.684Z,95122.77
2019-01-23T02:23:36.080Z,95116.09
2019-01-23T02:25:11.463Z,95115.53
2019-01-23T02:26:47.285Z,95114.58
2019-01-23T02:28:24.387Z,95113.82
2019-01-23T02:30:04.447Z,95112.14
2019-01-23T02:31:40.307Z,95107.77
2019-01-23T02:33:15.679Z,95103.39
2019-01-23T02:34:53.623Z,95106.63
2019-01-23T02:36:30.434Z,95106.99
2019-01-23T02:38:07.967Z,95107.78
2019-01-23T02:39:46.509Z,95102.44
2019-01-23T02:41:23.083Z,95104.34
2019-01-23T02:42:58.673Z,95093.67
2019-01-23T02:44:34.816Z,95094.43
2019-01-23T02:46:10.815Z,95086.42
2019-01-23T02:47:46.469Z,95093.28
2019-01-23T02:49:22.144Z,95088.32
2019-01-23T02:50:58.415Z,95091.14
2019-01-23T02:52:33.830Z,95090.80
2019-01-23T02:54:09.733Z,95088.48
2019-01-23T02:55:45.690Z,95079.19
2019-01-23T02:57:21.140Z,95082.42
2019-01-23T02:58:56.862Z,95077.86
2019-01-23T03:00:32.496Z,95075.76
2019-01-23T03:02:08.425Z,95076.70
2019-01-23T03:03:44.801Z,95073.84
2019-01-23T03:05:21.351Z,95068.14
2019-01-23T03:07:00.452Z,95070.83
2019-01-23T03:08:36.150Z,95069.67
2019-01-23T03:10:13.574Z,95073.66
2019-01-23T03:11:50.502Z,95062.99
2019-01-23T03:13:26.283Z,95068.90
2019-01-23T03:15:03.457Z,95064.73
2019-01-23T03:16:40.553Z,95059.95
2019-01-23T03:18:21.076Z,95065.10
2019-01-23T03:19:59.731Z,95065.28
2019-01-23T03:21:41.111Z,95063.39
2019-01-23T03:23:19.911Z,95059.59
2019-01-23T03:24:57.442Z,95058.08
2019-01-23T03:26:33.920Z,95058.08
2019-01-23T03:28:14.897Z,95055.45
2019-01-23T03:29:53.690Z,95054.49
2019-01-23T03:31:30.499Z,95053.36
2019-01-23T03:33:08.207Z,95048.41
2019-01-23T03:34:48.716Z,95046.87
2019-01-23T03:36:21.535Z,95052.23
2019-01-23T03:37:57.488Z,95052.80
2019-01-23T03:39:33.436Z,95044.43
2019-01-23T03:41:08.896Z,95049.56
2019-01-23T03:42:44.486Z,95045.17
2019-01-23T03:44:19.928Z,95047.28
2019-01-23T03:45:55.829Z,95048.80
2019-01-23T03:47:31.206Z,95048.98
2019-01-23T03:49:07.083Z,95048.05
2019-01-23T03:50:42.632Z,95046.91
2019-01-23T03:52:18.017Z,95049.56
2019-01-23T03:53:53.391Z,95045.75
2019-01-23T03:55:31.506Z,95046.89
2019-01-23T03:57:07.739Z,95040.98
2019-01-23T03:58:43.927Z,95039.66
2019-01-23T04:00:21.422Z,95038.89
2019-01-23T04:01:57.388Z,95042.12
2019-01-23T04:03:33.264Z,95037.19
2019-01-23T04:05:09.722Z,95031.28
2019-01-23T04:06:49.786Z,95033.39
2019-01-23T04:08:25.284Z,95036.80
2019-01-23T04:10:00.907Z,95034.15
2019-01-23T04:11:37.843Z,95028.80
2019-01-23T04:13:13.490Z,95033.95
2019-01-23T04:14:49.222Z,95026.14
2019-01-23T04:16:26.084Z,95034.53
2019-01-23T04:18:04.365Z,95028.43
2019-01-23T04:19:40.168Z,95032.61
2019-01-23T04:21:15.516Z,95029.38
2019-01-23T04:22:51.091Z,95022.50
2019-01-23T04:24:26.770Z,95021.55
2019-01-23T04:26:02.476Z,95021.36
2019-01-23T04:27:37.746Z,95024.22
2019-01-23T04:29:13.128Z,95020.78
2019-01-23T04:30:48.873Z,95023.08
2019-01-23T04:32:27.180Z,95020.20
2019-01-23T04:34:02.887Z,95023.06
2019-01-23T04:35:38.210Z,95024.39
2019-01-23T04:37:13.505Z,95019.27
2019-01-23T04:38:49.589Z,95015.84
2019-01-23T04:40:26.658Z,95020.98
2019-01-23T04:42:02.506Z,95017.17
2019-01-23T04:43:38.183Z,95021.55
2019-01-23T04:45:18.001Z,95019.24
2019-01-23T04:46:53.777Z,95019.06
2019-01-23T04:48:29.312Z,95018.50
2019-01-23T04:50:05.376Z,95005.76
2019-01-23T04:51:54.856Z,95010.31
2019-01-23T04:53:37.598Z,95009.00
2019-01-23T04:55:13.062Z,95014.53
2019-01-23T04:56:48.333Z,95005.64
2019-01-23T04:58:23.615Z,95003.34
2019-01-23T04:59:59.279Z,95008.12
2019-01-23T05:01:35.105Z,95004.31
2019-01-23T05:03:10.440Z,95011.16
2019-01-23T05:04:45.759Z,95007.93
2019-01-23T05:06:21.814Z,95003.93
2019-01-23T05:07:57.115Z,95005.64
2019-01-23T05:09:32.492Z,95008.48
2019-01-23T05:11:07.856Z,95000.87
2019-01-23T05:12:43.118Z,95003.93
2019-01-23T05:14:18.863Z,95004.30
2019-01-23T05:15:54.406Z,94998.41
2019-01-23T05:17:29.787Z,94995.95
2019-01-23T05:19:05.116Z,94998.04
2019-01-23T05:20:43.211Z,95001.08
2019-01-23T05:22:18.573Z,94995.75
2019-01-23T05:23:54.422Z,94992.75
2019-01-23T05:25:29.743Z,94995.23
2019-01-23T05:27:05.415Z,94995.38
2019-01-23T05:28:43.561Z,94997.09
2019-01-23T05:30:22.088Z,94998.24
2019-01-23T05:32:06.717Z,95000.34
2019-01-23T05:33:43.175Z,94990.66
2019-01-23T05:35:19.381Z,94995.42
2019-01-23T05:36:57.772Z,94996.20
2019-01-23T05:38:33.154Z,94994.47
2019-01-23T05:40:09.056Z,94987.81
2019-01-23T05:41:44.424Z,94989.92
2019-01-23T05:43:19.978Z,94988.18
2019-01-23T05:44:55.497Z,94986.67
2019-01-23T05:46:33.157Z,94986.12
2019-01-23T05:48:08.581Z,94994.88
2019-01-23T05:49:43.969Z,94990.69
2019-01-23T05:51:20.201Z,94992.41
2019-01-23T05:52:55.581Z,94996.58
2019-01-23T05:54:30.896Z,94988.21
2019-01-23T05:56:06.380Z,94983.84
2019-01-23T05:57:41.844Z,94991.47
2019-01-23T05:59:22.836Z,94996.61
2019-01-23T06:00:58.306Z,94992.41
2019-01-23T06:02:33.828Z,95000.77
2019-01-23T06:04:09.221Z,95007.26
2019-01-23T06:05:45.197Z,94994.88
2019-01-23T06:07:21.120Z,94988.78
2019-01-23T06:08:57.820Z,95000.20
2019-01-23T06:10:33.176Z,94996.59
2019-01-23T06:12:08.721Z,95000.22
2019-01-23T06:13:44.058Z,94994.50
2019-01-23T06:15:22.281Z,94996.59
2019-01-23T06:16:57.637Z,94993.74
2019-01-23T06:18:37.732Z,94991.27
2019-01-23T06:20:15.911Z,94990.89
2019-01-23T06:21:58.510Z,94997.74
2019-01-23T06:23:36.217Z,94988.98
2019-01-23T06:25:13.222Z,94988.80
2019-01-23T06:26:48.736Z,94990.32
2019-01-23T06:28:33.920Z,94993.36
2019-01-23T06:30:14.328Z,94997.56
2019-01-23T06:31:50.521Z,94987.70
2019-01-23T06:33:27.256Z,94986.94
2019-01-23T06:35:03.166Z,94983.89
2019-01-23T06:36:38.634Z,94987.70
2019-01-23T06:38:15.920Z,94990.94
2019-01-23T06:39:53.394Z,94990.36
2019-01-23T06:41:44.000Z,94993.23
2019-01-23T06:43:19.484Z,94997.61
2019-01-23T06:44:55.945Z,94992.11
2019-01-23T06:46:31.767Z,94991.54
2019-01-23T06:48:12.167Z,94994.58
2019-01-23T06:49:47.622Z,94993.83
2019-01-23T06:51:23.068Z,94994.40
2019-01-23T06:52:59.037Z,94994.63
2019-01-23T06:54:36.492Z,94994.40
2019-01-23T06:56:12.325Z,94994.24
2019-01-23T06:57:49.381Z,94992.72
2019-01-23T06:59:27.626Z,94991.39
2019-01-23T07:01:06.636Z,94991.78
2019-01-23T07:02:44.470Z,94993.31
2019-01-23T07:04:23.209Z,94990.64
2019-01-23T07:05:58.931Z,94984.38
2019-01-23T07:07:37.652Z,94988.18
2019-01-23T07:09:13.716Z,94990.83
2019-01-23T07:10:49.636Z,94990.63
2019-01-23T07:12:27.104Z,94987.78
2019-01-23T07:14:02.620Z,94980.93
2019-01-23T07:15:39.158Z,94985.13
2019-01-23T07:17:20.610Z,94982.66
2019-01-23T07:18:55.911Z,94985.52
2019-01-23T07:20:36.770Z,94984.94
2019-01-23T07:22:13.423Z,94987.80
2019-01-23T07:23:50.849Z,94986.67
2019-01-23T07:25:29.986Z,94986.86
2019-01-23T07:27:13.736Z,94991.42
2019-01-23T07:28:49.513Z,94989.33
2019-01-23T07:30:30.434Z,94992.36
2019-01-23T07:32:07.439Z,94994.08
2019-01-23T07:33:46.408Z,94992.17
2019-01-23T07:35:25.729Z,94985.50
2019-01-23T07:37:08.312Z,94980.94
2019-01-23T07:38:46.973Z,94984.18
2019-01-23T07:40:24.345Z,94982.46
2019-01-23T07:42:01.100Z,94989.12
2019-01-23T07:43:37.532Z,94989.30
2019-01-23T07:45:15.376Z,94991.59
2019-01-23T07:46:51.112Z,94990.82
2019-01-23T07:48:26.561Z,94988.88
2019-01-23T07:50:06.964Z,94994.56
2019-01-23T07:51:43.050Z,94996.66
2019-01-23T07:53:22.464Z,94986.37
2019-01-23T07:54:59.767Z,94991.70
2019-01-23T07:56:41.103Z,94988.41
2019-01-23T07:58:19.328Z,94988.98
2019-01-23T07:59:59.865Z,94981.92
2019-01-23T08:01:36.417Z,94985.55
2019-01-23T08:03:20.363Z,94987.25
2019-01-23T08:04:57.378Z,94992.34
2019-01-23T08:06:41.870Z,94989.08
2019-01-23T08:08:17.216Z,94991.36
2019-01-23T08:10:07.872Z,94993.96
2019-01-23T08:11:43.240Z,94992.61
2019-01-23T08:13:18.701Z,94998.14
2019-01-23T08:14:54.414Z,94996.03
2019-01-23T08:16:30.153Z,94991.58
2019-01-23T08:18:10.737Z,94990.82
2019-01-23T08:19:47.296Z,94993.28
2019-01-23T08:21:24.378Z,94994.44
2019-01-23T08:22:59.838Z,94991.54
2019-01-23T08:24:35.899Z,94983.91
2019-01-23T08:26:14.398Z,94988.80
2019-01-23T08:27:56.607Z,94982.70
2019-01-23T08:29:33.965Z,94980.41
2019-01-23T08:31:13.415Z,94985.52
2019-01-23T08:32:52.673Z,94984.10
2019-01-23T08:34:28.678Z,94983.89
2019-01-23T08:36:05.496Z,94994.45
2019-01-23T08:37:41.290Z,94991.38
2019-01-23T08:39:17.213Z,94990.08
2019-01-23T08:40:53.837Z,94986.98
2019-01-23T08:42:29.625Z,94984.89
2019-01-23T08:44:09.194Z,94987.77
2019-01-23T08:45:44.576Z,94983.89
2019-01-23T08:47:19.917Z,94984.05
2019-01-23T08:48:59.495Z,94981.84
2019-01-23T08:50:39.739Z,94981.66
2019-01-23T08:52:18.039Z,94985.42
2019-01-23T08:53:53.810Z,94976.27
2019-01-23T08:55:31.716Z,94975.29
2019-01-23T08:57:11.154Z,94968.22
2019-01-23T08:58:50.736Z,94972.71
2019-01-23T09:00:30.326Z,94968.92
2019-01-23T09:02:09.195Z,94970.71
2019-01-23T09:03:48.897Z,94970.53
2019-01-23T09:05:40.261Z,94969.04
2019-01-23T09:07:16.042Z,94962.87
2019-01-23T09:08:56.892Z,94968.67
2019-01-23T09:10:32.056Z,94970.67
2019-01-23T09:12:10.598Z,94962.94
2019-01-23T09:13:49.906Z,94964.98
2019-01-23T09:15:26.505Z,94963.65
2019-01-23T09:17:09.734Z,94957.88
2019-01-23T09:18:50.503Z,94956.57
2019-01-23T09:20:29.482Z,94959.02
2019-01-23T09:22:06.285Z,94952.83
2019-01-23T09:23:56.788Z,94955.17
2019-01-23T09:25:37.638Z,94948.44
2019-01-23T09:27:16.216Z,94948.92
2019-01-23T09:28:58.826Z,94944.91
2019-01-23T09:30:52.611Z,94958.56
2019-01-23T09:33:08.060Z,94956.27
2019-01-23T09:35:39.584Z,94957.93
2019-01-23T09:37:53.490Z,94955.91
2019-01-23T09:39:59.479Z,94958.70
2019-01-23T09:41:49.613Z,94961.28
2019-01-23T09:44:18.822Z,94964.02
2019-01-23T09:46:25.617Z,94953.36
2019-01-23T09:48:15.530Z,94955.45
2019-01-23T09:50:45.482Z,94958.27
2019-01-23T09:53:17.122Z,94956.80
2019-01-23T09:54:53.217Z,94959.72
2019-01-23T09:56:31.615Z,94951.45
2019-01-23T09:58:15.337Z,94950.56
2019-01-23T09:59:59.424Z,94953.79
2019-01-23T10:01:34.445Z,94958.17
2019-01-23T10:03:09.770Z,94958.54
2019-01-23T10:04:47.543Z,94963.13
2019-01-23T10:06:27.373Z,94962.07
2019-01-23T10:08:06.344Z,94965.50
2019-01-23T10:09:47.106Z,94958.89
2019-01-23T10:11:28.946Z,94958.58
2019-01-23T10:13:06.282Z,94961.66
2019-01-23T10:14:45.196Z,94957.19
2019-01-23T10:16:26.661Z,94957.47
2019-01-23T10:18:12.464Z,94965.05
2019-01-23T10:19:48.468Z,94970.39
2019-01-23T10:21:25.317Z,94961.12
2019-01-23T10:23:04.389Z,94958.38
2019-01-23T10:24:44.574Z,94961.88
2019-01-23T10:26:24.882Z,94960.98
2019-01-23T10:28:28.888Z,94961.03
2019-01-23T10:29:57.581Z,94959.78
2019-01-23T10:31:58.647Z,94960.02
2019-01-23T10:33:45.289Z,94960.98
2019-01-23T10:35:26.841Z,94964.34
2019-01-23T10:37:02.829Z,94963.36
2019-01-23T10:38:43.466Z,94957.45
2019-01-23T10:40:22.252Z,94956.98
2019-01-23T10:42:13.419Z,94960.06
2019-01-23T10:44:00.394Z,94956.87
2019-01-23T10:45:41.050Z,94951.53
2019-01-23T10:47:19.239Z,94951.61
2019-01-23T10:48:56.108Z,94954.13
2019-01-23T10:50:39.378Z,94957.60
2019-01-23T10:52:15.352Z,94958.54
2019-01-23T10:53:52.786Z,94963.58
2019-01-23T10:55:28.703Z,94958.00
2019-01-23T10:57:20.735Z,94966.39
2019-01-23T10:59:00.047Z,94962.31
2019-01-23T11:00:37.836Z,94965.42
2019-01-23T11:02:13.750Z,94964.44
2019-01-23T11:03:51.346Z,94963.77
2019-01-23T11:05:31.334Z,94964.85
2019-01-23T11:07:09.410Z,94959.23
2019-01-23T11:08:48.663Z,94959.45
2019-01-23T11:10:27.808Z,94957.59
2019-01-23T11:12:05.040Z,94961.58
2019-01-23T11:13:41.228Z,94961.53
2019-01-23T11:15:22.368Z,94960.01
2019-01-23T11:17:08.049Z,94956.41
2019-01-23T11:18:52.173Z,94958.32
2019-01-23T11:20:37.540Z,94961.19
2019-01-23T11:22:12.937Z,94958.91
2019-01-23T11:23:52.431Z,94961.00
2019-01-23T11:25:33.568Z,94960.60
2019-01-23T11:27:18.196Z,94960.53
2019-01-23T11:29:02.688Z,94958.95
2019-01-23T11:30:46.439Z,94956.52
2019-01-23T11:32:28.606Z,94957.79
2019-01-23T11:34:15.539Z,94960.70
2019-01-23T11:35:51.398Z,94963.87
2019-01-23T11:37:29.928Z,94968.83
2019-01-23T11:39:14.954Z,94969.34
2019-01-23T11:40:55.796Z,94966.59
2019-01-23T11:42:38.820Z,94969.80
2019-01-23T11:44:19.005Z,94963.27
2019-01-23T11:46:01.934Z,94963.45
2019-01-23T11:47:40.957Z,94964.70
2019-01-23T11:49:18.465Z,94959.38
2019-01-23T11:50:53.916Z,94954.63
2019-01-23T11:52:29.787Z,94956.80
2019-01-23T11:54:05.211Z,94952.70
2019-01-23T11:55:43.738Z,94959.72
2019-01-23T11:57:26.168Z,94956.45
2019-01-23T11:59:05.191Z,94955.70
2019-01-23T12:00:40.765Z,94963.63
2019-01-23T12:02:19.175Z,94968.69
2019-01-23T12:03:58.595Z,94965.36
2019-01-23T12:05:36.325Z,94955.80
2019-01-23T12:07:15.022Z,94966.22
2019-01-23T12:08:52.846Z,94961.94
2019-01-23T12:10:38.761Z,94963.84
2019-01-23T12:12:14.533Z,94959.06
2019-01-23T12:13:56.038Z,94963.83
2019-01-23T12:15:40.663Z,94962.93
2019-01-23T12:17:16.182Z,94968.28
2019-01-23T12:18:54.607Z,94969.16
2019-01-23T12:20:30.561Z,94964.88
2019-01-23T12:22:08.166Z,94962.20
2019-01-23T12:23:50.040Z,94962.33
2019-01-23T12:25:27.302Z,94956.29
2019-01-23T12:27:13.867Z,94968.11
2019-01-23T12:28:51.795Z,94972.66
2019-01-23T12:30:34.224Z,94968.52
2019-01-23T12:32:12.560Z,94970.52
2019-01-23T12:33:55.718Z,94967.48
2019-01-23T12:35:35.119Z,94968.10
2019-01-23T12:37:13.720Z,94968.51
2019-01-23T12:38:50.943Z,94970.00
2019-01-23T12:40:35.531Z,94968.72
2019-01-23T12:42:13.971Z,94968.23
2019-01-23T12:43:55.480Z,94963.16
2019-01-23T12:45:37.903Z,94967.87
2019-01-23T12:47:19.619Z,94966.00
2019-01-23T12:49:05.432Z,94964.19
2019-01-23T12:50:44.748Z,94961.16
2019-01-23T12:52:34.628Z,94960.50
2019-01-23T12:54:18.942Z,94962.77
2019-01-23T12:56:00.438Z,94965.91
2019-01-23T12:57:46.368Z,94976.09
2019-01-23T12:59:22.806Z,94975.95
2019-01-23T13:01:08.343Z,94976.53
2019-01-23T13:02:44.028Z,94981.55
2019-01-23T13:04:20.454Z,94976.88
2019-01-23T13:05:59.894Z,94979.44
2019-01-23T13:07:38.344Z,94982.20
2019-01-23T13:09:15.398Z,94981.09
2019-01-23T13:10:54.786Z,94982.44
2019-01-23T13:12:39.687Z,94977.86
2019-01-23T13:14:20.253Z,94983.12
2019-01-23T13:16:02.652Z,94984.37
2019-01-23T13:17:56.670Z,94979.09
2019-01-23T13:19:46.347Z,94978.56
2019-01-23T13:21:22.772Z,94984.56
2019-01-23T13:23:04.698Z,94981.64
2019-01-23T13:24:42.198Z,94981.64
2019-01-23T13:26:35.155Z,94977.09
2019-01-23T13:28:11.021Z,94984.49
2019-01-23T13:29:50.767Z,94984.27
2019-01-23T13:31:37.527Z,94987.44
2019-01-23T13:33:14.457Z,94991.42
2019-01-23T13:34:52.347Z,94987.22
2019-01-23T13:36:35.872Z,94990.66
2019-01-23T13:38:15.235Z,94997.98
2019-01-23T13:39:54.061Z,94999.27
2019-01-23T13:41:34.216Z,94997.30
2019-01-23T13:43:10.349Z,94996.02
2019-01-23T13:44:46.262Z,94991.01
2019-01-23T13:46:24.970Z,94997.65
2019-01-23T13:48:02.606Z,94996.40
2019-01-23T13:49:42.268Z,94998.27
2019-01-23T13:51:24.167Z,95001.89
2019-01-23T13:53:05.712Z,95006.80
2019-01-23T13:54:43.794Z,95006.39
2019-01-23T13:56:20.445Z,95007.86
2019-01-23T13:58:03.575Z,95003.72
2019-01-23T13:59:39.732Z,95014.39
2019-01-23T14:01:18.243Z,95017.77
2019-01-23T14:02:58.917Z,95020.19
2019-01-23T14:04:46.422Z,95015.02
2019-01-23T14:06:23.213Z,95022.64
2019-01-23T14:08:02.163Z,95018.47
2019-01-23T14:09:42.412Z,95020.86
2019-01-23T14:11:18.629Z,95030.67
2019-01-23T14:12:57.607Z,95035.55
2019-01-23T14:14:33.397Z,95034.57
2019-01-23T14:16:14.809Z,95037.17
2019-01-23T14:17:56.216Z,95036.20
2019-01-23T14:19:36.395Z,95034.25
2019-01-23T14:21:12.104Z,95040.80
2019-01-23T14:22:52.796Z,95043.14
2019-01-23T14:24:29.371Z,95043.31
2019-01-23T14:26:08.086Z,95045.53
2019-01-23T14:27:44.266Z,95048.13
2019-01-23T14:29:19.879Z,95044.02
2019-01-23T14:30:56.324Z,95045.09
2019-01-23T14:32:37.319Z,95053.27
2019-01-23T14:34:16.561Z,95050.81
2019-01-23T14:35:52.844Z,95056.64
2019-01-23T14:37:41.123Z,95055.31
2019-01-23T14:39:22.018Z,95056.89
2019-01-23T14:40:59.768Z,95058.23
2019-01-23T14:42:51.256Z,95064.30
2019-01-23T14:45:09.714Z,95063.72
2019-01-23T14:49:10.622Z,95069.98
2019-01-23T14:50:58.456Z,95069.62
2019-01-23T14:52:44.995Z,95075.11
2019-01-23T14:54:20.985Z,95075.02
2019-01-23T14:55:57.870Z,95072.16
2019-01-23T14:57:38.222Z,95072.28
2019-01-23T14:59:18.155Z,95080.82
2019-01-23T15:00:56.305Z,95078.72
2019-01-23T15:02:34.163Z,95079.96
2019-01-23T15:04:15.032Z,95078.81
2019-01-23T15:05:52.059Z,95078.81
2019-01-23T15:07:27.682Z,95085.91
2019-01-23T15:09:15.637Z,95087.61
2019-01-23T15:11:01.337Z,95093.05
2019-01-23T15:12:46.781Z,95081.22
2019-01-23T15:14:33.617Z,95081.97
2019-01-23T15:16:21.330Z,95091.17
2019-01-23T15:18:04.817Z,95087.34
2019-01-23T15:19:48.019Z,95087.40
2019-01-23T15:21:38.333Z,95091.53
2019-01-23T15:23:21.492Z,95095.41
2019-01-23T15:25:05.268Z,95093.50
2019-01-23T15:26:41.834Z,95097.72
2019-01-23T15:28:18.074Z,95097.95
2019-01-23T15:29:59.302Z,95102.91
2019-01-23T15:31:50.099Z,95111.10
2019-01-23T15:33:18.810Z,95108.58
2019-01-23T15:34:59.298Z,95110.03
2019-01-23T15:36:37.894Z,95114.43
2019-01-23T15:38:23.594Z,95115.63
2019-01-23T15:40:03.677Z,95119.08
2019-01-23T15:41:42.459Z,95116.45
2019-01-23T15:43:22.212Z,95117.70
2019-01-23T15:45:08.505Z,95122.86
2019-01-23T15:46:53.622Z,95121.52
2019-01-23T15:48:29.408Z,95123.36
2019-01-23T15:50:13.413Z,95124.56
2019-01-23T15:51:51.451Z,95121.27
2019-01-23T15:53:30.313Z,95124.30
2019-01-23T15:55:07.196Z,95132.70
2019-01-23T15:56:43.098Z,95131.63
2019-01-23T15:58:32.269Z,95135.63
2019-01-23T16:00:33.603Z,95141.94
2019-01-23T16:02:10.370Z,95146.91
2019-01-23T16:03:52.450Z,95149.47
2019-01-23T16:05:32.387Z,95158.06
2019-01-23T16:07:12.209Z,95151.97
2019-01-23T16:09:02.637Z,95151.19
2019-01-23T16:10:38.387Z,95153.48
2019-01-23T16:12:21.116Z,95159.21
2019-01-23T16:13:58.215Z,95160.16
2019-01-23T16:15:39.528Z,95161.55
2019-01-23T16:17:18.041Z,95171.66
2019-01-23T16:18:54.317Z,95170.33
2019-01-23T16:20:55.792Z,95171.85
2019-01-23T16:22:41.400Z,95170.33
2019-01-23T16:24:16.533Z,95173.77
2019-01-23T16:25:55.874Z,95178.15
2019-01-23T16:27:33.657Z,95177.78
2019-01-23T16:29:13.842Z,95171.49
2019-01-23T16:30:53.114Z,95174.59
2019-01-23T16:32:36.107Z,95178.16
2019-01-23T16:34:18.777Z,95182.73
2019-01-23T16:36:01.508Z,95180.48
2019-01-23T16:37:41.693Z,95188.69
2019-01-23T16:39:19.547Z,95188.71
2019-01-23T16:40:57.850Z,95194.03
2019-01-23T16:42:40.977Z,95192.14
2019-01-23T16:44:25.737Z,95195.38
2019-01-23T16:46:01.914Z,95193.46
2019-01-23T16:47:37.807Z,95196.70
2019-01-23T16:49:20.624Z,95194.61
2019-01-23T16:51:08.453Z,95191.23
2019-01-23T16:52:47.785Z,95200.77
2019-01-23T16:54:28.810Z,95195.23
2019-01-23T16:56:09.036Z,95206.67
2019-01-23T16:57:45.304Z,95207.81
2019-01-23T16:59:29.436Z,95209.00
2019-01-23T17:01:08.570Z,95211.10
2019-01-23T17:02:47.403Z,95214.91
2019-01-23T17:04:32.917Z,95218.91
2019-01-23T17:06:13.320Z,95218.91
2019-01-23T17:08:02.536Z,95221.96
2019-01-23T17:09:42.610Z,95226.16
2019-01-23T17:11:21.188Z,95230.11
2019-01-23T17:12:57.234Z,95232.41
2019-01-23T17:14:38.843Z,95230.35
2019-01-23T17:16:22.583Z,95236.45
2019-01-23T17:18:01.575Z,95237.81
2019-01-23T17:19:39.457Z,95239.11
2019-01-23T17:21:22.500Z,95240.48
2019-01-23T17:23:03.097Z,95247.53
2019-01-23T17:24:42.145Z,95249.81
2019-01-23T17:26:36.449Z,95252.67
2019-01-23T17:28:17.137Z,95253.05
2019-01-23T17:30:07.202Z,95258.39
2019-01-23T17:31:43.433Z,95249.62
2019-01-23T17:33:23.000Z,95254.39
2019-01-23T17:35:03.039Z,95256.48
2019-01-23T17:36:39.164Z,95258.20
2019-01-23T17:38:22.439Z,95263.91
2019-01-23T17:40:07.330Z,95263.34
2019-01-23T17:42:02.357Z,95260.52
2019-01-23T17:43:44.743Z,95266.58
2019-01-23T17:45:33.551Z,95272.52
2019-01-23T17:47:19.225Z,95270.20
2019-01-23T17:49:11.445Z,95276.52
2019-01-23T17:50:57.241Z,95276.13
2019-01-23T17:52:39.450Z,95287.75
2019-01-23T17:54:21.960Z,95284.51
2019-01-23T17:56:02.553Z,95281.84
2019-01-23T17:57:45.287Z,95287.75
2019-01-23T17:59:24.560Z,95296.51
2019-01-23T18:01:02.609Z,95294.61
2019-01-23T18:02:52.619Z,95302.00
2019-01-23T18:04:53.731Z,95300.10
2019-01-23T18:06:36.704Z,95302.77
2019-01-23T18:08:22.308Z,95298.77
2019-01-23T18:09:59.106Z,95309.05
2019-01-23T18:11:40.613Z,95308.10
2019-01-23T18:13:17.663Z,95315.72
2019-01-23T18:15:03.198Z,95316.67
2019-01-23T18:16:47.742Z,95314.95
2019-01-23T18:18:43.117Z,95317.81
2019-01-23T18:20:46.624Z,95316.86
2019-01-23T18:22:41.693Z,95317.81
2019-01-23T18:24:22.707Z,95315.53
2019-01-23T18:27:02.271Z,95315.91
2019-01-23T18:28:38.491Z,95313.05
2019-01-23T18:30:43.197Z,95314.20
2019-01-23T18:32:27.885Z,95315.17
2019-01-23T18:35:01.920Z,95323.17
2019-01-23T18:37:30.321Z,95322.78
2019-01-23T18:42:23.337Z,95336.68
2019-01-23T18:44:30.758Z,95340.52
2019-01-23T18:46:57.950Z,95348.70
2019-01-23T18:49:08.836Z,95349.83
2019-01-23T18:51:24.303Z,95350.98
2019-01-23T18:53:29.292Z,95358.41
2019-01-23T18:54:56.548Z,95359.34
2019-01-23T18:57:01.296Z,95363.33
2019-01-23T19:03:07.196Z,95372.09
2019-01-23T19:07:32.752Z,95381.63
2019-01-23T19:09:28.312Z,95382.78
2019-01-23T19:11:08.223Z,95382.77
2019-01-23T19:12:48.032Z,95387.91
2019-01-23T19:14:30.771Z,95378.77
2019-01-23T19:16:12.908Z,95380.68
2019-01-23T19:17:55.146Z,95380.30
2019-01-23T19:19:46.566Z,95384.69
2019-01-23T19:21:32.447Z,95385.83
2019-01-23T19:23:13.493Z,95383.36
2019-01-23T19:24:59.925Z,95386.38
2019-01-23T19:26:42.907Z,95387.53
2019-01-23T19:28:43.881Z,95390.18
2019-01-23T19:30:40.602Z,95388.64
2019-01-23T19:32:23.694Z,95393.41
2019-01-23T19:34:03.811Z,95400.65
2019-01-23T19:35:51.199Z,95398.73
2019-01-23T19:37:34.611Z,95398.15
2019-01-23T19:39:23.962Z,95402.55
2019-01-23T19:41:12.258Z,95400.41
2019-01-23T19:42:51.582Z,95398.83
2019-01-23T19:44:31.434Z,95403.19
2019-01-23T19:46:16.432Z,95406.94
2019-01-23T19:47:57.507Z,95405.98
2019-01-23T19:49:40.751Z,95412.61
2019-01-23T19:51:33.883Z,95411.08
2019-01-23T19:53:25.395Z,95408.45